Time;durP1;ratioP1;P1;durP2;ratioP2;P2;SDS_P1;SDS_P2;PMS_P1;PMS_P2;Temp;Humidity;BMP_temperature;BMP_pressure;BME280_temperature;BME280_humidity;BME280_pressure;Samples;Min_cycle;Max_cycle;Signal;HPM_P1;HPM_P2
2023/06/10 00:02:07;;;;;;;7.18;6.07;;;;;;;;;;5087634;28;20229;-61
2023/06/10 00:04:36;;;;;;;7.72;4.80;;;;;;;;;;5071083;28;20234;-61
2023/06/10 00:07:03;;;;;;;5.28;4.82;;;;;;;;;;5069161;28;20211;-61
2023/06/10 00:09:30;;;;;;;5.18;4.78;;;;;;;;;;5085783;28;20404;-61
2023/06/10 00:11:59;;;;;;;5.10;4.68;;;;;;;;;;5080723;28;20210;-62
2023/06/10 00:14:28;;;;;;;6.28;5.28;;;;;;;;;;5075606;28;20238;-61
2023/06/10 00:16:55;;;;;;;5.05;4.65;;;;;;;;;;5091547;28;20210;-61
2023/06/10 00:19:25;;;;;;;5.35;4.85;;;;;;;;;;5081689;28;20833;-62
2023/06/10 00:21:53;;;;;;;5.60;4.97;;;;;;;;;;5070791;28;20313;-62
2023/06/10 00:24:20;;;;;;;4.75;4.45;;;;;;;;;;5084020;28;20210;-62
2023/06/10 00:26:47;;;;;;;5.32;4.93;;;;;;;;;;5075889;28;20211;-62
2023/06/10 00:29:14;;;;;;;5.50;5.00;;;;;;;;;;5091504;28;20305;-62
2023/06/10 00:31:42;;;;;;;5.47;4.75;;;;;;;;;;5081462;28;20313;-62
2023/06/10 00:34:09;;;;;;;4.78;4.50;;;;;;;;;;5071137;28;20218;-62
2023/06/10 00:36:37;;;;;;;5.35;4.88;;;;;;;;;;5077337;28;20197;-62
2023/06/10 00:39:04;;;;;;;4.93;4.53;;;;;;;;;;5087234;28;20251;-61
2023/06/10 00:41:33;;;;;;;5.40;4.90;;;;;;;;;;5091151;28;20593;-61
2023/06/10 00:44:00;;;;;;;5.45;5.00;;;;;;;;;;5090837;28;20267;-61
2023/06/10 00:46:27;;;;;;;6.65;4.55;;;;;;;;;;5090695;28;20220;-61
2023/06/10 00:48:56;;;;;;;4.57;4.28;;;;;;;;;;5090091;28;20206;-61
2023/06/10 00:51:24;;;;;;;5.22;4.82;;;;;;;;;;5090262;28;20226;-61
2023/06/10 00:53:51;;;;;;;5.60;5.10;;;;;;;;;;5091063;28;20214;-62
2023/06/10 00:56:18;;;;;;;4.68;4.32;;;;;;;;;;5091030;28;20581;-62
2023/06/10 00:58:45;;;;;;;5.63;5.13;;;;;;;;;;5088085;28;20214;-62
2023/06/10 01:01:13;;;;;;;4.80;4.40;;;;;;;;;;5069237;28;20199;-61
2023/06/10 01:03:40;;;;;;;5.50;5.00;;;;;;;;;;5073585;28;20365;-61
2023/06/10 01:06:17;;;;;;;7.68;4.75;;;;;;;;;;5071464;28;20211;-61
2023/06/10 01:08:48;;;;;;;4.80;4.47;;;;;;;;;;5089164;28;20239;-62
2023/06/10 01:11:19;;;;;;;4.93;4.53;;;;;;;;;;5090415;28;20229;-62
2023/06/10 01:13:47;;;;;;;4.95;4.65;;;;;;;;;;5090085;28;20215;-61
2023/06/10 01:16:14;;;;;;;5.18;4.85;;;;;;;;;;5082740;28;20198;-62
2023/06/10 01:18:43;;;;;;;5.47;5.00;;;;;;;;;;5088037;28;20217;-62
2023/06/10 01:21:16;;;;;;;4.63;4.25;;;;;;;;;;5090041;28;20227;-61
2023/06/10 01:23:45;;;;;;;5.47;4.97;;;;;;;;;;5090522;28;20210;-61
2023/06/10 01:26:13;;;;;;;5.45;4.82;;;;;;;;;;5073900;28;20214;-62
2023/06/10 01:28:42;;;;;;;5.03;4.63;;;;;;;;;;5089568;28;20214;-61
2023/06/10 01:31:12;;;;;;;4.63;4.25;;;;;;;;;;5089675;28;20656;-62
2023/06/10 01:33:42;;;;;;;9.27;4.47;;;;;;;;;;5090203;28;20206;-61
2023/06/10 01:36:10;;;;;;;5.22;4.82;;;;;;;;;;5075844;28;20669;-61
2023/06/10 01:38:39;;;;;;;5.25;4.75;;;;;;;;;;5088905;28;20577;-62
2023/06/10 01:41:08;;;;;;;4.85;4.45;;;;;;;;;;5090242;28;20210;-61
2023/06/10 01:43:35;;;;;;;5.53;5.05;;;;;;;;;;5089935;28;20253;-63
2023/06/10 01:46:02;;;;;;;5.85;5.35;;;;;;;;;;5081602;28;20207;-62
2023/06/10 01:48:29;;;;;;;5.40;4.90;;;;;;;;;;5080511;28;20283;-62
2023/06/10 01:50:56;;;;;;;5.20;4.80;;;;;;;;;;5089950;28;20230;-62
2023/06/10 01:53:23;;;;;;;5.28;4.80;;;;;;;;;;5090032;28;20305;-62
2023/06/10 01:55:50;;;;;;;5.28;4.78;;;;;;;;;;5088343;28;20230;-62
2023/06/10 01:58:19;;;;;;;4.93;4.63;;;;;;;;;;5089027;28;20256;-62
2023/06/10 02:00:46;;;;;;;5.43;5.00;;;;;;;;;;5089063;28;20218;-62
2023/06/10 02:03:13;;;;;;;5.35;4.75;;;;;;;;;;5089688;28;20252;-62
2023/06/10 02:05:40;;;;;;;5.47;5.03;;;;;;;;;;5071784;28;20207;-62
2023/06/10 02:08:07;;;;;;;4.35;4.05;;;;;;;;;;5086723;28;20238;-62
2023/06/10 02:10:34;;;;;;;4.80;4.40;;;;;;;;;;5089474;28;20724;-62
2023/06/10 02:13:01;;;;;;;5.00;4.53;;;;;;;;;;5089486;28;20230;-62
2023/06/10 02:15:30;;;;;;;5.25;4.47;;;;;;;;;;5089174;28;20708;-62
2023/06/10 02:17:57;;;;;;;4.68;4.32;;;;;;;;;;5087113;28;20206;-62
2023/06/10 02:20:24;;;;;;;4.75;4.45;;;;;;;;;;5089506;28;20264;-63
2023/06/10 02:22:52;;;;;;;5.20;4.80;;;;;;;;;;5089382;28;20263;-62
2023/06/10 02:25:19;;;;;;;4.63;4.22;;;;;;;;;;5089392;28;20276;-63
2023/06/10 02:27:46;;;;;;;6.07;4.88;;;;;;;;;;5088222;28;20210;-62
2023/06/10 02:30:14;;;;;;;6.22;5.05;;;;;;;;;;5088108;28;20271;-61
2023/06/10 02:32:47;;;;;;;5.00;4.65;;;;;;;;;;5088436;28;20210;-62
2023/06/10 02:35:14;;;;;;;5.45;4.95;;;;;;;;;;5089256;28;20312;-62
2023/06/10 02:37:41;;;;;;;5.57;5.07;;;;;;;;;;5087626;28;20206;-62
2023/06/10 02:40:10;;;;;;;5.40;4.90;;;;;;;;;;5089090;28;20565;-62
2023/06/10 02:42:37;;;;;;;6.18;4.90;;;;;;;;;;5088987;28;20643;-62
2023/06/10 02:45:04;;;;;;;6.18;5.68;;;;;;;;;;5088992;28;20217;-62
2023/06/10 02:47:31;;;;;;;5.25;4.85;;;;;;;;;;5087194;28;20209;-62
2023/06/10 02:50:00;;;;;;;6.72;4.63;;;;;;;;;;5088570;28;20210;-62
2023/06/10 02:52:27;;;;;;;5.50;5.00;;;;;;;;;;5088216;28;20574;-62
2023/06/10 02:54:54;;;;;;;5.68;5.20;;;;;;;;;;5088096;28;20218;-62
2023/06/10 02:57:21;;;;;;;5.03;4.50;;;;;;;;;;5086120;28;20218;-62
2023/06/10 02:59:48;;;;;;;5.22;4.82;;;;;;;;;;5086067;28;20209;-62
2023/06/10 03:02:15;;;;;;;5.30;4.90;;;;;;;;;;5088134;28;20259;-62
2023/06/10 03:04:43;;;;;;;8.95;4.68;;;;;;;;;;5088197;28;20692;-62
2023/06/10 03:07:12;;;;;;;5.35;4.75;;;;;;;;;;5095854;28;20699;-62
2023/06/10 03:09:39;;;;;;;5.95;5.35;;;;;;;;;;5078800;28;20202;-62
2023/06/10 03:12:07;;;;;;;6.00;4.68;;;;;;;;;;5088143;28;20250;-62
2023/06/10 03:14:34;;;;;;;15.60;5.10;;;;;;;;;;5087981;28;20213;-62
2023/06/10 03:17:02;;;;;;;4.97;4.68;;;;;;;;;;5087182;28;20206;-62
2023/06/10 03:19:30;;;;;;;5.55;4.38;;;;;;;;;;5085342;28;20736;-62
2023/06/10 03:21:59;;;;;;;5.18;4.53;;;;;;;;;;5087459;28;20371;-62
2023/06/10 03:24:28;;;;;;;5.78;5.00;;;;;;;;;;5087796;28;20572;-62
2023/06/10 03:26:55;;;;;;;5.13;4.72;;;;;;;;;;5086396;28;20210;-62
2023/06/10 03:29:22;;;;;;;5.78;5.38;;;;;;;;;;5084488;28;20619;-62
2023/06/10 03:31:49;;;;;;;5.43;4.95;;;;;;;;;;5102795;28;20225;-62
2023/06/10 03:34:16;;;;;;;5.35;4.93;;;;;;;;;;5108674;28;20206;-62
2023/06/10 03:36:43;;;;;;;5.22;4.60;;;;;;;;;;5108598;28;20274;-62
2023/06/10 03:39:10;;;;;;;5.13;4.72;;;;;;;;;;5091026;28;20270;-62
2023/06/10 03:41:38;;;;;;;5.35;4.93;;;;;;;;;;5068065;28;20214;-61
2023/06/10 03:44:05;;;;;;;5.18;4.70;;;;;;;;;;5077569;28;20233;-62
2023/06/10 03:46:32;;;;;;;5.38;4.90;;;;;;;;;;5108421;28;20201;-62
2023/06/10 03:49:00;;;;;;;5.57;5.15;;;;;;;;;;5096457;28;20206;-61
2023/06/10 03:51:27;;;;;;;5.63;5.13;;;;;;;;;;5087563;28;20791;-62
2023/06/10 03:53:54;;;;;;;6.45;5.30;;;;;;;;;;5087898;28;20210;-62
2023/06/10 03:56:21;;;;;;;6.18;4.65;;;;;;;;;;5087261;28;20218;-62
2023/06/10 03:58:49;;;;;;;5.60;5.20;;;;;;;;;;5087072;28;20206;-61
2023/06/10 04:01:17;;;;;;;5.75;5.03;;;;;;;;;;5088218;28;20339;-62
2023/06/10 04:03:44;;;;;;;5.10;4.60;;;;;;;;;;5085202;28;20221;-62
2023/06/10 04:06:12;;;;;;;6.07;5.30;;;;;;;;;;5086840;28;20210;-62
2023/06/10 04:08:39;;;;;;;5.53;4.97;;;;;;;;;;5086062;28;20251;-62
2023/06/10 04:11:06;;;;;;;5.78;5.00;;;;;;;;;;5087819;28;20351;-62
2023/06/10 04:13:33;;;;;;;5.63;5.03;;;;;;;;;;5087883;28;20206;-62
2023/06/10 04:16:02;;;;;;;4.93;4.53;;;;;;;;;;5087873;28;20263;-62
2023/06/10 04:18:29;;;;;;;4.70;4.30;;;;;;;;;;5085668;28;20210;-62
2023/06/10 04:20:56;;;;;;;4.93;4.53;;;;;;;;;;5067607;28;20231;-63
2023/06/10 04:23:24;;;;;;;5.70;4.75;;;;;;;;;;5067688;28;20218;-62
2023/06/10 04:25:51;;;;;;;5.80;4.68;;;;;;;;;;5067778;28;20217;-62
2023/06/10 04:28:18;;;;;;;5.10;4.70;;;;;;;;;;5072343;28;20211;-62
2023/06/10 04:30:45;;;;;;;13.20;4.53;;;;;;;;;;5087596;28;20209;-62
2023/06/10 04:33:14;;;;;;;12.45;4.95;;;;;;;;;;5086840;28;20238;-62
2023/06/10 04:35:42;;;;;;;4.13;3.88;;;;;;;;;;5087415;28;20283;-62
2023/06/10 04:38:09;;;;;;;4.70;4.40;;;;;;;;;;5087390;28;20210;-62
2023/06/10 04:40:36;;;;;;;4.50;4.20;;;;;;;;;;5071841;28;20233;-62
2023/06/10 04:43:03;;;;;;;5.60;4.80;;;;;;;;;;5067280;28;20235;-62
2023/06/10 04:45:31;;;;;;;4.65;4.25;;;;;;;;;;5084255;28;20210;-62
2023/06/10 04:47:58;;;;;;;4.70;4.30;;;;;;;;;;5087827;28;20302;-62
2023/06/10 04:50:26;;;;;;;4.88;4.45;;;;;;;;;;5084988;28;20207;-62
2023/06/10 04:52:53;;;;;;;4.60;4.20;;;;;;;;;;5088423;28;20233;-62
2023/06/10 04:55:21;;;;;;;4.80;4.40;;;;;;;;;;5091312;28;20897;-62
2023/06/10 04:57:48;;;;;;;4.65;4.35;;;;;;;;;;5090211;28;20206;-62
2023/06/10 05:03:29;;;;;;;5.45;4.32;;;;;;;;;;5085308;28;20620;-60
2023/06/10 05:05:56;;;;;;;4.78;4.20;;;;;;;;;;5085685;28;20592;-61
2023/06/10 05:08:23;;;;;;;4.35;4.05;;;;;;;;;;5084264;28;20214;-60
2023/06/10 05:10:50;;;;;;;4.88;4.25;;;;;;;;;;5084689;28;20202;-61
2023/06/10 05:13:18;;;;;;;4.28;4.07;;;;;;;;;;5085426;28;20229;-61
2023/06/10 05:15:46;;;;;;;4.20;3.80;;;;;;;;;;5085365;28;20300;-61
2023/06/10 05:18:13;;;;;;;3.80;3.60;;;;;;;;;;5071259;28;20229;-61
2023/06/10 05:20:41;;;;;;;3.95;3.67;;;;;;;;;;5069676;28;20321;-60
2023/06/10 05:23:08;;;;;;;4.03;3.72;;;;;;;;;;5068605;28;20244;-61
2023/06/10 05:25:35;;;;;;;3.63;3.42;;;;;;;;;;5075053;28;20245;-61
2023/06/10 05:28:03;;;;;;;4.28;3.75;;;;;;;;;;5079369;28;20251;-61
2023/06/10 05:30:30;;;;;;;3.83;3.63;;;;;;;;;;5084168;28;20203;-61
2023/06/10 05:32:57;;;;;;;3.65;3.42;;;;;;;;;;5069247;28;20207;-61
2023/06/10 05:35:24;;;;;;;3.63;3.35;;;;;;;;;;5065094;28;20207;-61
2023/06/10 05:37:52;;;;;;;4.07;3.78;;;;;;;;;;5068862;28;20358;-61
2023/06/10 05:40:20;;;;;;;3.97;3.53;;;;;;;;;;5082024;28;20206;-61
2023/06/10 05:42:47;;;;;;;3.60;3.40;;;;;;;;;;5084865;28;20233;-61
2023/06/10 05:45:14;;;;;;;4.18;3.88;;;;;;;;;;5084888;28;20225;-61
2023/06/10 05:47:41;;;;;;;3.75;3.58;;;;;;;;;;5083971;28;20218;-61
2023/06/10 05:50:09;;;;;;;3.25;3.15;;;;;;;;;;5082314;28;20301;-61
2023/06/10 05:52:36;;;;;;;5.75;4.00;;;;;;;;;;5064040;28;20753;-61
2023/06/10 05:55:04;;;;;;;6.45;4.10;;;;;;;;;;5064629;28;20215;-61
2023/06/10 05:57:32;;;;;;;3.97;3.78;;;;;;;;;;5079769;28;20916;-61
2023/06/10 05:59:59;;;;;;;4.70;3.58;;;;;;;;;;5080372;28;20198;-62
2023/06/10 06:02:26;;;;;;;3.63;3.33;;;;;;;;;;5084221;28;20776;-61
2023/06/10 06:04:53;;;;;;;4.60;4.20;;;;;;;;;;5084680;28;20268;-61
2023/06/10 06:07:20;;;;;;;3.55;3.35;;;;;;;;;;5084328;28;20264;-62
2023/06/10 06:09:47;;;;;;;3.53;3.30;;;;;;;;;;5073906;28;20237;-61
2023/06/10 06:12:16;;;;;;;3.88;3.58;;;;;;;;;;5079865;28;20202;-61
2023/06/10 06:14:44;;;;;;;3.75;3.45;;;;;;;;;;5071191;28;20582;-60
2023/06/10 06:17:11;;;;;;;3.80;3.60;;;;;;;;;;5069140;28;20280;-61
2023/06/10 06:19:38;;;;;;;3.33;3.13;;;;;;;;;;5053533;28;20592;-61
2023/06/10 06:22:06;;;;;;;3.72;3.33;;;;;;;;;;5051839;28;20943;-60
2023/06/10 06:24:33;;;;;;;3.53;3.33;;;;;;;;;;5050770;28;20230;-61
2023/06/10 06:27:00;;;;;;;4.20;3.92;;;;;;;;;;5050652;28;20678;-61
2023/06/10 06:29:29;;;;;;;3.80;3.50;;;;;;;;;;5050137;28;20208;-61
2023/06/10 06:31:56;;;;;;;3.25;2.92;;;;;;;;;;5051559;28;20234;-61
2023/06/10 06:34:23;;;;;;;3.55;3.35;;;;;;;;;;5050632;28;20590;-61
2023/06/10 06:36:50;;;;;;;5.65;3.47;;;;;;;;;;5050417;28;20204;-61
2023/06/10 06:39:17;;;;;;;3.70;3.50;;;;;;;;;;5049980;28;20204;-62
2023/06/10 06:41:44;;;;;;;3.50;3.30;;;;;;;;;;5055535;28;20210;-61
2023/06/10 06:44:12;;;;;;;4.18;3.90;;;;;;;;;;5070343;28;20767;-61
2023/06/10 06:46:40;;;;;;;3.47;3.28;;;;;;;;;;5069756;28;20572;-61
2023/06/10 06:49:07;;;;;;;3.13;3.00;;;;;;;;;;5068758;28;20199;-61
2023/06/10 06:51:35;;;;;;;4.22;3.78;;;;;;;;;;5064029;28;20415;-61
2023/06/10 06:54:02;;;;;;;6.55;3.33;;;;;;;;;;5049622;28;20635;-61
2023/06/10 06:56:29;;;;;;;4.00;3.70;;;;;;;;;;5049461;28;20215;-61
2023/06/10 06:58:56;;;;;;;3.58;3.38;;;;;;;;;;5049382;28;20218;-61
2023/06/10 07:01:23;;;;;;;7.03;3.88;;;;;;;;;;5049371;28;20644;-62
2023/06/10 07:03:51;;;;;;;3.60;3.45;;;;;;;;;;5050507;28;20289;-62
2023/06/10 07:06:18;;;;;;;3.35;3.20;;;;;;;;;;5069328;28;20218;-62
2023/06/10 07:08:45;;;;;;;3.90;3.70;;;;;;;;;;5061652;28;20207;-61
2023/06/10 07:11:13;;;;;;;3.75;3.45;;;;;;;;;;5048982;28;20215;-63
2023/06/10 07:13:40;;;;;;;4.88;4.03;;;;;;;;;;5065785;28;20319;-61
2023/06/10 07:16:07;;;;;;;4.18;3.78;;;;;;;;;;5068921;28;20207;-61
2023/06/10 07:18:34;;;;;;;4.75;3.90;;;;;;;;;;5066551;28;20221;-61
2023/06/10 07:21:02;;;;;;;4.47;4.13;;;;;;;;;;5048718;28;20710;-60
2023/06/10 07:23:29;;;;;;;3.42;3.22;;;;;;;;;;5060931;28;20227;-61
2023/06/10 07:25:56;;;;;;;3.00;2.70;;;;;;;;;;5067932;28;20217;-59
2023/06/10 07:28:23;;;;;;;5.13;3.72;;;;;;;;;;5058360;28;20207;-61
2023/06/10 07:30:50;;;;;;;3.53;3.33;;;;;;;;;;5061590;28;20212;-60
2023/06/10 07:33:17;;;;;;;3.92;3.58;;;;;;;;;;5054683;28;20202;-60
2023/06/10 07:35:44;;;;;;;3.40;3.20;;;;;;;;;;5057244;28;20693;-60
2023/06/10 07:38:13;;;;;;;3.53;3.33;;;;;;;;;;5048381;28;20207;-60
2023/06/10 07:40:40;;;;;;;3.88;3.67;;;;;;;;;;5047669;28;20204;-60
2023/06/10 07:43:07;;;;;;;3.95;3.65;;;;;;;;;;5047929;28;20227;-61
2023/06/10 07:45:34;;;;;;;3.70;3.50;;;;;;;;;;5065405;28;20268;-61
2023/06/10 07:48:01;;;;;;;3.90;3.70;;;;;;;;;;5068430;28;20218;-61
2023/06/10 07:50:28;;;;;;;4.10;3.80;;;;;;;;;;5062303;28;20261;-61
2023/06/10 07:52:55;;;;;;;3.67;3.58;;;;;;;;;;5058476;28;20200;-61
2023/06/10 07:55:25;;;;;;;6.15;3.70;;;;;;;;;;5052599;28;20693;-62
2023/06/10 07:57:52;;;;;;;3.75;3.55;;;;;;;;;;5048517;28;20288;-63
2023/06/10 08:00:20;;;;;;;3.92;3.70;;;;;;;;;;5051049;28;20230;-62
2023/06/10 08:02:47;;;;;;;3.90;3.60;;;;;;;;;;5060562;28;20288;-62
2023/06/10 08:05:14;;;;;;;3.92;3.72;;;;;;;;;;5059142;28;20226;-60
2023/06/10 08:07:41;;;;;;;4.10;3.78;;;;;;;;;;5067870;28;20218;-60
2023/06/10 08:10:09;;;;;;;3.53;3.33;;;;;;;;;;5068083;28;20206;-60
2023/06/10 08:12:37;;;;;;;4.47;4.07;;;;;;;;;;5065605;28;20210;-60
2023/06/10 08:15:05;;;;;;;4.03;3.78;;;;;;;;;;5066481;28;20211;-60
2023/06/10 08:17:32;;;;;;;3.42;3.33;;;;;;;;;;5067284;28;20214;-60
2023/06/10 08:19:59;;;;;;;4.00;3.80;;;;;;;;;;5048650;28;20208;-60
2023/06/10 08:22:26;;;;;;;4.05;3.75;;;;;;;;;;5048023;28;20627;-60
2023/06/10 08:24:54;;;;;;;4.22;3.92;;;;;;;;;;5063261;28;20297;-61
2023/06/10 08:27:21;;;;;;;4.60;4.25;;;;;;;;;;5067506;28;20217;-61
2023/06/10 08:29:49;;;;;;;4.40;4.10;;;;;;;;;;5066813;28;20312;-61
2023/06/10 08:32:16;;;;;;;3.47;3.35;;;;;;;;;;5066808;28;20577;-60
2023/06/10 08:34:43;;;;;;;4.43;4.03;;;;;;;;;;5062514;28;20282;-61
2023/06/10 08:37:10;;;;;;;6.03;4.53;;;;;;;;;;5065460;28;20211;-61
2023/06/10 08:39:37;;;;;;;4.15;3.85;;;;;;;;;;5067519;28;20724;-61
2023/06/10 08:42:11;;;;;;;4.18;3.88;;;;;;;;;;5065827;28;20245;-60
2023/06/10 08:44:38;;;;;;;3.95;3.75;;;;;;;;;;5060447;28;20199;-60
2023/06/10 08:47:08;;;;;;;5.03;4.63;;;;;;;;;;5064732;28;20280;-60
2023/06/10 08:49:39;;;;;;;4.10;3.90;;;;;;;;;;5068365;28;20242;-61
2023/06/10 08:52:07;;;;;;;3.53;3.33;;;;;;;;;;5058731;28;20212;-59
2023/06/10 08:54:37;;;;;;;4.60;4.30;;;;;;;;;;5054290;28;20208;-59
2023/06/10 08:57:05;;;;;;;4.65;4.30;;;;;;;;;;5068331;28;20230;-59
2023/06/10 08:59:32;;;;;;;4.93;4.50;;;;;;;;;;5055121;28;20203;-60
2023/06/10 09:02:00;;;;;;;4.15;3.85;;;;;;;;;;5046044;28;20254;-59
2023/06/10 09:04:29;;;;;;;4.25;3.85;;;;;;;;;;5046746;28;20234;-60
2023/06/10 09:06:57;;;;;;;5.78;4.20;;;;;;;;;;5047686;28;20306;-60
2023/06/10 09:09:24;;;;;;;4.40;4.10;;;;;;;;;;5047829;28;20226;-60
2023/06/10 09:11:51;;;;;;;4.07;3.90;;;;;;;;;;5052298;28;20234;-61
2023/06/10 09:14:18;;;;;;;4.15;3.85;;;;;;;;;;5054208;28;20731;-61
2023/06/10 09:16:48;;;;;;;3.83;3.63;;;;;;;;;;5050717;28;20212;-61
2023/06/10 09:19:15;;;;;;;3.45;3.10;;;;;;;;;;5047926;28;20238;-62
2023/06/10 09:21:44;;;;;;;4.63;4.32;;;;;;;;;;5048011;28;20232;-62
2023/06/10 09:24:11;;;;;;;4.80;4.40;;;;;;;;;;5047877;28;20234;-62
2023/06/10 09:26:38;;;;;;;4.75;4.40;;;;;;;;;;5048019;28;20226;-61
2023/06/10 09:29:05;;;;;;;4.07;3.88;;;;;;;;;;5048866;28;20210;-61
2023/06/10 09:31:32;;;;;;;4.28;3.97;;;;;;;;;;5047838;28;20216;-61
2023/06/10 09:34:07;;;;;;;4.32;4.03;;;;;;;;;;5047789;28;20206;-62
2023/06/10 09:36:34;;;;;;;3.90;3.70;;;;;;;;;;5047775;28;20211;-62
2023/06/10 09:39:03;;;;;;;4.93;4.50;;;;;;;;;;5047493;28;20215;-62
2023/06/10 09:41:36;;;;;;;3.80;3.60;;;;;;;;;;5047393;28;20246;-61
2023/06/10 09:44:03;;;;;;;4.45;4.22;;;;;;;;;;5053290;28;20249;-62
2023/06/10 09:46:33;;;;;;;4.03;3.72;;;;;;;;;;5066669;28;20258;-63
2023/06/10 09:49:00;;;;;;;4.68;4.22;;;;;;;;;;5067361;28;20248;-62
2023/06/10 09:51:27;;;;;;;3.70;3.60;;;;;;;;;;5071140;28;20207;-62
2023/06/10 09:53:54;;;;;;;4.47;4.18;;;;;;;;;;5071183;28;20211;-61
2023/06/10 09:56:34;;;;;;;3.70;3.60;;;;;;;;;;5062315;28;20211;-62
2023/06/10 09:59:01;;;;;;;3.63;3.53;;;;;;;;;;5053078;28;20216;-62
2023/06/10 10:01:28;;;;;;;4.28;3.97;;;;;;;;;;5065740;28;20387;-63
2023/06/10 10:03:55;;;;;;;4.50;4.20;;;;;;;;;;5066382;28;20239;-62
2023/06/10 10:06:22;;;;;;;4.50;4.20;;;;;;;;;;5057382;28;20207;-62
2023/06/10 10:08:49;;;;;;;3.75;3.55;;;;;;;;;;5051829;28;20204;-62
2023/06/10 10:11:18;;;;;;;3.95;3.75;;;;;;;;;;5071131;28;20214;-64
2023/06/10 10:13:49;;;;;;;3.70;3.50;;;;;;;;;;5062475;28;20214;-62
2023/06/10 10:16:17;;;;;;;3.53;3.40;;;;;;;;;;5069251;28;20263;-62
2023/06/10 10:18:45;;;;;;;4.00;3.67;;;;;;;;;;5070589;28;20211;-62
2023/06/10 10:21:13;;;;;;;3.50;3.40;;;;;;;;;;5063539;28;20227;-62
2023/06/10 10:23:42;;;;;;;3.08;2.97;;;;;;;;;;5067424;28;20214;-62
2023/06/10 10:26:11;;;;;;;2.92;2.83;;;;;;;;;;5068026;28;20603;-62
2023/06/10 10:28:42;;;;;;;4.03;3.67;;;;;;;;;;5061068;28;20215;-61
2023/06/10 10:31:11;;;;;;;3.30;3.20;;;;;;;;;;5052074;28;20204;-61
2023/06/10 10:33:42;;;;;;;4.32;3.95;;;;;;;;;;5053708;28;20642;-61
2023/06/10 10:36:10;;;;;;;3.78;3.42;;;;;;;;;;5065180;28;20207;-60
2023/06/10 10:38:37;;;;;;;3.70;3.55;;;;;;;;;;5049831;28;20227;-63
2023/06/10 10:41:05;;;;;;;3.72;3.58;;;;;;;;;;5075952;28;20202;-62
2023/06/10 10:43:32;;;;;;;4.13;3.83;;;;;;;;;;5069136;28;20226;-63
2023/06/10 10:46:00;;;;;;;3.63;3.50;;;;;;;;;;5053663;28;20223;-62
2023/06/10 10:48:35;;;;;;;4.32;4.03;;;;;;;;;;5049526;28;20257;-62
2023/06/10 10:51:02;;;;;;;4.70;4.40;;;;;;;;;;5059631;28;20523;-63
2023/06/10 10:53:29;;;;;;;4.28;3.97;;;;;;;;;;5060204;28;20199;-63
2023/06/10 10:56:06;;;;;;;4.20;3.78;;;;;;;;;;5062982;28;20221;-63
2023/06/10 10:58:33;;;;;;;3.30;3.13;;;;;;;;;;5054561;28;20215;-63
2023/06/10 11:01:00;;;;;;;3.47;3.38;;;;;;;;;;5048448;28;20230;-63
2023/06/10 11:03:31;;;;;;;3.55;3.35;;;;;;;;;;5055758;28;20235;-62
2023/06/10 11:05:58;;;;;;;2.38;1.85;;;;;;;;;;5064823;28;20201;-64
2023/06/10 11:08:40;;;;;;;3.97;3.67;;;;;;;;;;5062344;28;20203;-63
2023/06/10 11:11:20;;;;;;;3.55;3.35;;;;;;;;;;5047006;28;20215;-63
2023/06/10 11:13:59;;;;;;;4.50;4.20;;;;;;;;;;5050635;28;20269;-63
2023/06/10 11:16:27;;;;;;;3.30;3.20;;;;;;;;;;5068351;28;20680;-63
2023/06/10 11:18:56;;;;;;;3.75;3.55;;;;;;;;;;5068828;28;20207;-64
2023/06/10 11:21:25;;;;;;;3.95;3.60;;;;;;;;;;5067999;28;20247;-63
2023/06/10 11:23:52;;;;;;;4.40;4.00;;;;;;;;;;5068441;28;20325;-63
2023/06/10 11:26:32;;;;;;;3.58;3.35;;;;;;;;;;5068951;28;20207;-62
2023/06/10 11:29:04;;;;;;;3.17;3.08;;;;;;;;;;5068907;28;20229;-62
2023/06/10 11:31:31;;;;;;;3.53;3.28;;;;;;;;;;5068594;28;20722;-63
2023/06/10 11:34:00;;;;;;;3.58;3.17;;;;;;;;;;5068669;28;20199;-63
2023/06/10 11:36:28;;;;;;;2.97;2.88;;;;;;;;;;5068682;28;20214;-63
2023/06/10 11:38:57;;;;;;;3.47;3.22;;;;;;;;;;5068364;28;20210;-63
2023/06/10 11:41:26;;;;;;;3.25;3.10;;;;;;;;;;5066323;28;20684;-62
2023/06/10 11:43:53;;;;;;;3.90;3.70;;;;;;;;;;5066366;28;20321;-61
2023/06/10 11:46:20;;;;;;;3.50;3.30;;;;;;;;;;5067965;28;20544;-60
2023/06/10 11:48:50;;;;;;;3.25;3.05;;;;;;;;;;5068061;28;20203;-61
2023/06/10 11:51:19;;;;;;;3.58;3.38;;;;;;;;;;5067884;28;20210;-60
2023/06/10 11:53:46;;;;;;;2.33;2.22;;;;;;;;;;5063106;28;20219;-61
2023/06/10 11:56:13;;;;;;;2.80;2.70;;;;;;;;;;5059008;28;20204;-63
2023/06/10 11:58:45;;;;;;;2.70;2.60;;;;;;;;;;5063544;28;20232;-60
2023/06/10 12:01:12;;;;;;;3.13;2.92;;;;;;;;;;5068509;28;20217;-62
2023/06/10 12:03:39;;;;;;;3.05;2.92;;;;;;;;;;5053001;28;20227;-62
2023/06/10 12:06:07;;;;;;;3.55;3.10;;;;;;;;;;5059066;28;20674;-62
2023/06/10 12:08:42;;;;;;;2.45;2.42;;;;;;;;;;5065677;28;20237;-61
2023/06/10 12:11:09;;;;;;;2.85;2.75;;;;;;;;;;5063566;28;20207;-61
2023/06/10 12:13:36;;;;;;;3.03;2.92;;;;;;;;;;5057910;28;20272;-63
2023/06/10 12:16:10;;;;;;;2.85;2.60;;;;;;;;;;5057880;28;20208;-62
2023/06/10 12:18:37;;;;;;;3.75;2.55;;;;;;;;;;5048168;28;20219;-62
2023/06/10 12:21:04;;;;;;;3.75;2.78;;;;;;;;;;5057928;28;20292;-63
2023/06/10 12:23:31;;;;;;;2.80;2.70;;;;;;;;;;5060022;28;20215;-63
2023/06/10 12:26:01;;;;;;;2.88;2.67;;;;;;;;;;5055738;28;20209;-62
2023/06/10 12:28:28;;;;;;;2.75;2.65;;;;;;;;;;5068063;28;20242;-61
2023/06/10 12:31:08;;;;;;;3.13;3.03;;;;;;;;;;5067994;28;20975;-61
2023/06/10 12:33:35;;;;;;;38.45;10.73;;;;;;;;;;5046768;28;20235;-62
2023/06/10 12:36:02;;;;;;;6.05;2.75;;;;;;;;;;5045319;28;20215;-62
2023/06/10 12:38:29;;;;;;;3.92;2.92;;;;;;;;;;5047459;28;20207;-61
2023/06/10 12:41:03;;;;;;;2.53;2.42;;;;;;;;;;5047410;28;20208;-61
2023/06/10 12:43:33;;;;;;;2.50;2.50;;;;;;;;;;5048371;28;20282;-62
2023/06/10 12:46:10;;;;;;;2.60;2.50;;;;;;;;;;5060164;28;20206;-62
2023/06/10 12:48:37;;;;;;;2.67;2.47;;;;;;;;;;5055402;28;20733;-62
2023/06/10 12:51:05;;;;;;;3.00;2.60;;;;;;;;;;5068205;28;20207;-62
2023/06/10 12:53:32;;;;;;;2.15;2.15;;;;;;;;;;5060673;28;20217;-65
2023/06/10 12:56:02;;;;;;;2.72;2.53;;;;;;;;;;5058078;28;20211;-61
2023/06/10 12:58:29;;;;;;;2.55;2.35;;;;;;;;;;5068058;28;20649;-63
2023/06/10 13:00:59;;;;;;;3.28;2.85;;;;;;;;;;5068233;28;20214;-63
2023/06/10 13:03:26;;;;;;;2.40;2.35;;;;;;;;;;5067536;28;20238;-63
2023/06/10 13:05:53;;;;;;;2.85;2.72;;;;;;;;;;5058495;28;20222;-60
2023/06/10 13:08:20;;;;;;;2.67;2.30;;;;;;;;;;5046571;28;20725;-61
2023/06/10 13:10:48;;;;;;;3.30;3.00;;;;;;;;;;5046832;28;20223;-63
2023/06/10 13:13:16;;;;;;;2.65;2.55;;;;;;;;;;5047547;28;20212;-61
2023/06/10 13:15:43;;;;;;;2.47;2.38;;;;;;;;;;5047177;28;20203;-62
2023/06/10 13:18:11;;;;;;;2.67;2.60;;;;;;;;;;5056904;28;20199;-62
2023/06/10 13:20:38;;;;;;;2.88;2.78;;;;;;;;;;5067741;28;20928;-62
2023/06/10 13:23:05;;;;;;;2.70;2.60;;;;;;;;;;5051943;28;20207;-61
2023/06/10 13:25:32;;;;;;;3.20;3.00;;;;;;;;;;5051616;28;20224;-62
2023/06/10 13:27:59;;;;;;;3.00;2.90;;;;;;;;;;5051519;28;20203;-62
2023/06/10 13:30:26;;;;;;;3.05;2.95;;;;;;;;;;5058741;28;20229;-62
2023/06/10 13:32:53;;;;;;;2.85;2.65;;;;;;;;;;5051878;28;20215;-62
2023/06/10 13:38:29;;;;;;;3.25;3.00;;;;;;;;;;5060764;28;20199;-62
2023/06/10 13:40:56;;;;;;;3.17;2.97;;;;;;;;;;5051010;28;20215;-60
2023/06/10 13:43:23;;;;;;;3.00;2.80;;;;;;;;;;5051131;28;20246;-60
2023/06/10 13:45:50;;;;;;;3.03;2.88;;;;;;;;;;5070242;28;20234;-64
2023/06/10 13:48:17;;;;;;;2.78;2.67;;;;;;;;;;5070985;28;20264;-65
2023/06/10 13:50:45;;;;;;;2.65;2.55;;;;;;;;;;5062688;28;20688;-65
2023/06/10 13:53:12;;;;;;;3.10;3.00;;;;;;;;;;5051079;28;20207;-65
2023/06/10 13:55:40;;;;;;;2.67;2.58;;;;;;;;;;5051213;28;20222;-64
2023/06/10 13:58:07;;;;;;;3.05;2.95;;;;;;;;;;5061877;28;20260;-65
2023/06/10 14:00:34;;;;;;;3.13;2.97;;;;;;;;;;5070526;28;20207;-65
2023/06/10 14:03:03;;;;;;;3.03;2.92;;;;;;;;;;5050520;28;20243;-65
2023/06/10 14:05:30;;;;;;;2.70;2.60;;;;;;;;;;5050743;28;20448;-63
2023/06/10 14:07:57;;;;;;;2.90;2.80;;;;;;;;;;5050286;28;20573;-64
2023/06/10 14:10:24;;;;;;;2.65;2.55;;;;;;;;;;5050561;28;20211;-64
2023/06/10 14:12:52;;;;;;;3.25;3.15;;;;;;;;;;5050045;28;20200;-63
2023/06/10 14:15:19;;;;;;;3.20;3.00;;;;;;;;;;5058398;28;20257;-64
2023/06/10 14:17:46;;;;;;;2.85;2.75;;;;;;;;;;5050640;28;20226;-64
2023/06/10 14:20:14;;;;;;;3.30;3.00;;;;;;;;;;5054654;28;20195;-65
2023/06/10 14:22:41;;;;;;;2.67;2.60;;;;;;;;;;5070535;28;20207;-66
2023/06/10 14:25:08;;;;;;;3.60;3.30;;;;;;;;;;5070044;28;20234;-65
2023/06/10 14:27:35;;;;;;;3.40;3.30;;;;;;;;;;5070492;28;20233;-65
2023/06/10 14:30:05;;;;;;;3.00;2.90;;;;;;;;;;5070213;28;20261;-64
2023/06/10 14:32:32;;;;;;;3.17;2.97;;;;;;;;;;5070493;28;20215;-65
2023/06/10 14:35:00;;;;;;;3.03;2.83;;;;;;;;;;5065313;28;20211;-65
2023/06/10 14:37:27;;;;;;;4.57;3.25;;;;;;;;;;5061164;28;20230;-64
2023/06/10 14:39:54;;;;;;;3.10;2.83;;;;;;;;;;5063968;28;20241;-61
2023/06/10 14:42:21;;;;;;;3.40;3.20;;;;;;;;;;5068836;28;20699;-60
2023/06/10 14:44:49;;;;;;;2.95;2.85;;;;;;;;;;5061253;28;20250;-60
2023/06/10 14:47:17;;;;;;;3.15;2.67;;;;;;;;;;5049133;28;20633;-60
2023/06/10 14:49:44;;;;;;;3.00;2.90;;;;;;;;;;5047456;28;20678;-60
2023/06/10 14:52:11;;;;;;;3.13;3.03;;;;;;;;;;5049269;28;20246;-60
2023/06/10 14:54:38;;;;;;;2.85;2.75;;;;;;;;;;5048499;28;20212;-63